createdAt,value
2019-04-10T00:00:32.451Z,4.94
2019-04-10T00:01:27.820Z,4.87
2019-04-10T00:02:01.890Z,4.87
2019-04-10T00:02:34.726Z,4.87
2019-04-10T00:03:08.274Z,4.87
2019-04-10T00:03:43.681Z,4.81
2019-04-10T00:04:16.195Z,4.81
2019-04-10T00:04:49.491Z,4.81
2019-04-10T00:05:23.562Z,4.81
2019-04-10T00:05:56.648Z,4.75
2019-04-10T00:06:31.977Z,4.75
2019-04-10T00:07:13.822Z,4.81
2019-04-10T00:07:41.651Z,4.75
2019-04-10T00:08:15.975Z,4.75
2019-04-10T00:08:49.247Z,4.75
2019-04-10T00:09:23.169Z,4.75
2019-04-10T00:09:57.652Z,4.75
2019-04-10T00:10:30.650Z,4.75
2019-04-10T00:11:04.742Z,4.69
2019-04-10T00:11:37.819Z,4.69
2019-04-10T00:12:11.658Z,4.69
2019-04-10T00:12:45.555Z,4.69
2019-04-10T00:13:18.647Z,4.75
2019-04-10T00:13:51.673Z,4.75
2019-04-10T00:14:24.665Z,4.75
2019-04-10T00:14:57.485Z,4.75
2019-04-10T00:15:30.690Z,4.75
2019-04-10T00:16:03.785Z,4.75
2019-04-10T00:16:36.713Z,4.75
2019-04-10T00:17:09.713Z,4.75
2019-04-10T00:17:42.958Z,4.75
2019-04-10T00:18:16.073Z,4.75
2019-04-10T00:18:49.085Z,4.75
2019-04-10T00:19:22.461Z,4.75
2019-04-10T00:19:56.005Z,4.75
2019-04-10T00:20:29.894Z,4.69
2019-04-10T00:21:03.024Z,4.69
2019-04-10T00:21:35.949Z,4.69
2019-04-10T00:22:09.679Z,4.69
2019-04-10T00:22:42.751Z,4.69
2019-04-10T00:23:15.843Z,4.62
2019-04-10T00:23:49.274Z,4.62
2019-04-10T00:24:22.249Z,4.62
2019-04-10T00:24:55.264Z,4.56
2019-04-10T00:25:28.591Z,4.56
2019-04-10T00:26:01.874Z,4.56
2019-04-10T00:26:34.717Z,4.56
2019-04-10T00:27:07.687Z,4.56
2019-04-10T00:27:40.945Z,4.56
2019-04-10T00:28:14.978Z,4.56
2019-04-10T00:28:48.066Z,4.56
2019-04-10T00:29:21.023Z,4.56
2019-04-10T00:29:54.380Z,4.56
2019-04-10T00:30:27.608Z,4.56
2019-04-10T00:31:00.583Z,4.50
2019-04-10T00:31:36.020Z,4.50
2019-04-10T00:32:09.828Z,4.56
2019-04-10T00:32:43.934Z,4.56
2019-04-10T00:33:17.112Z,4.56
2019-04-10T00:33:51.181Z,4.50
2019-04-10T00:34:25.390Z,4.50
2019-04-10T00:34:58.627Z,4.50
2019-04-10T00:35:32.223Z,4.50
2019-04-10T00:36:05.300Z,4.44
2019-04-10T00:36:39.340Z,4.50
2019-04-10T00:37:21.874Z,4.44
2019-04-10T00:37:49.202Z,4.44
2019-04-10T00:38:22.375Z,4.44
2019-04-10T00:38:55.925Z,4.44
2019-04-10T00:39:29.049Z,4.50
2019-04-10T00:40:03.277Z,4.50
2019-04-10T00:40:36.709Z,4.50
2019-04-10T00:41:10.202Z,4.44
2019-04-10T00:41:44.252Z,4.44
2019-04-10T00:42:17.369Z,4.44
2019-04-10T00:42:51.613Z,4.44
2019-04-10T00:43:24.703Z,4.44
2019-04-10T00:43:58.078Z,4.37
2019-04-10T00:44:31.998Z,4.44
2019-04-10T00:45:05.457Z,4.37
2019-04-10T00:45:39.654Z,4.37
2019-04-10T00:46:13.673Z,4.37
2019-04-10T00:46:46.734Z,4.31
2019-04-10T00:47:19.777Z,4.31
2019-04-10T00:47:53.877Z,4.31
2019-04-10T00:48:27.776Z,4.31
2019-04-10T00:49:01.237Z,4.31
2019-04-10T00:49:34.275Z,4.31
2019-04-10T00:50:08.451Z,4.31
2019-04-10T00:50:42.517Z,4.31
2019-04-10T00:51:15.763Z,4.31
2019-04-10T00:51:48.621Z,4.31
2019-04-10T00:52:21.848Z,4.31
2019-04-10T00:52:55.326Z,4.31
2019-04-10T00:53:29.416Z,4.31
2019-04-10T00:54:02.749Z,4.31
2019-04-10T00:54:35.569Z,4.31
2019-04-10T00:55:09.363Z,4.31
2019-04-10T00:55:42.345Z,4.31
2019-04-10T00:56:15.333Z,4.25
2019-04-10T00:56:48.579Z,4.25
2019-04-10T00:57:21.533Z,4.25
2019-04-10T00:57:54.818Z,4.25
2019-04-10T00:58:28.121Z,4.25
2019-04-10T00:59:01.767Z,4.25
2019-04-10T00:59:34.837Z,4.31
2019-04-10T01:00:08.553Z,4.25
2019-04-10T01:00:41.635Z,4.25
2019-04-10T01:01:14.595Z,4.25
2019-04-10T01:01:47.826Z,4.25
2019-04-10T01:02:20.909Z,4.25
2019-04-10T01:02:53.857Z,4.25
2019-04-10T01:03:42.193Z,4.25
2019-04-10T01:04:15.154Z,4.25
2019-04-10T01:04:48.864Z,4.25
2019-04-10T01:05:22.884Z,4.19
2019-04-10T01:05:56.081Z,4.19
2019-04-10T01:06:30.167Z,4.19
2019-04-10T01:07:04.318Z,4.19
2019-04-10T01:07:40.123Z,4.19
2019-04-10T01:08:12.700Z,4.19
2019-04-10T01:08:45.747Z,4.19
2019-04-10T01:09:21.492Z,4.19
2019-04-10T01:09:55.587Z,4.19
2019-04-10T01:10:28.698Z,4.19
2019-04-10T01:11:01.781Z,4.19
2019-04-10T01:11:36.075Z,4.19
2019-04-10T01:12:09.839Z,4.19
2019-04-10T01:12:44.011Z,4.19
2019-04-10T01:13:16.993Z,4.19
2019-04-10T01:13:50.334Z,4.19
2019-04-10T01:14:23.817Z,4.19
2019-04-10T01:14:56.653Z,4.12
2019-04-10T01:15:29.608Z,4.12
2019-04-10T01:16:03.105Z,4.12
2019-04-10T01:16:36.253Z,4.12
2019-04-10T01:17:09.356Z,4.12
2019-04-10T01:17:42.456Z,4.12
2019-04-10T01:18:15.582Z,4.12
2019-04-10T01:18:51.179Z,4.12
2019-04-10T01:19:24.251Z,4.12
2019-04-10T01:19:57.148Z,4.06
2019-04-10T01:20:31.283Z,4.06
2019-04-10T01:21:04.577Z,4.06
2019-04-10T01:21:37.492Z,4.00
2019-04-10T01:22:11.428Z,4.00
2019-04-10T01:22:45.500Z,4.00
2019-04-10T01:23:18.613Z,4.00
2019-04-10T01:23:51.542Z,4.00
2019-04-10T01:24:24.529Z,4.00
2019-04-10T01:24:57.785Z,3.94
2019-04-10T01:25:30.795Z,3.94
2019-04-10T01:26:03.711Z,3.94
2019-04-10T01:26:37.087Z,3.94
2019-04-10T01:27:10.385Z,3.87
2019-04-10T01:27:43.210Z,3.87
2019-04-10T01:28:16.398Z,3.87
2019-04-10T01:28:51.243Z,3.87
2019-04-10T01:29:25.138Z,3.87
2019-04-10T01:29:58.269Z,3.87
2019-04-10T01:30:31.061Z,3.87
2019-04-10T01:31:04.535Z,3.87
2019-04-10T01:31:37.647Z,3.94
2019-04-10T01:32:10.608Z,3.94
2019-04-10T01:32:43.938Z,3.94
2019-04-10T01:33:18.785Z,3.87
2019-04-10T01:33:52.715Z,3.87
2019-04-10T01:34:25.975Z,3.87
2019-04-10T01:34:58.910Z,3.87
2019-04-10T01:35:32.287Z,3.87
2019-04-10T01:36:05.270Z,3.87
2019-04-10T01:36:38.237Z,3.81
2019-04-10T01:37:11.112Z,3.81
2019-04-10T01:37:49.493Z,3.81
2019-04-10T01:38:19.682Z,3.75
2019-04-10T01:38:53.859Z,3.75
2019-04-10T01:39:28.677Z,3.75
2019-04-10T01:40:02.560Z,3.75
2019-04-10T01:40:37.344Z,3.75
2019-04-10T01:41:10.459Z,3.75
2019-04-10T01:41:43.865Z,3.69
2019-04-10T01:42:16.975Z,3.69
2019-04-10T01:43:02.384Z,3.75
2019-04-10T01:43:24.659Z,3.69
2019-04-10T01:43:57.785Z,3.75
2019-04-10T01:44:30.957Z,3.75
2019-04-10T01:45:04.970Z,3.69
2019-04-10T01:45:37.998Z,3.69
2019-04-10T01:46:11.096Z,3.69
2019-04-10T01:46:44.071Z,3.69
2019-04-10T01:47:19.266Z,3.69
2019-04-10T01:47:53.207Z,3.69
2019-04-10T01:48:27.958Z,3.69
2019-04-10T01:49:01.675Z,3.69
2019-04-10T01:49:34.640Z,3.69
2019-04-10T01:50:08.440Z,3.69
2019-04-10T01:50:42.306Z,3.69
2019-04-10T01:51:15.387Z,3.69
2019-04-10T01:51:49.905Z,3.69
2019-04-10T01:52:22.796Z,3.69
2019-04-10T01:52:55.669Z,3.69
2019-04-10T01:53:28.637Z,3.69
2019-04-10T01:54:02.612Z,3.69
2019-04-10T01:54:35.541Z,3.69
2019-04-10T01:55:20.327Z,3.69
2019-04-10T01:55:43.475Z,3.62
2019-04-10T01:56:25.048Z,3.62
2019-04-10T01:56:52.123Z,3.62
2019-04-10T01:57:25.248Z,3.62
2019-04-10T01:57:59.595Z,3.62
2019-04-10T01:58:32.907Z,3.62
2019-04-10T01:59:05.979Z,3.62
2019-04-10T01:59:40.299Z,3.62
2019-04-10T02:00:17.002Z,3.62
2019-04-10T02:00:59.633Z,3.62
2019-04-10T02:01:38.709Z,3.56
2019-04-10T02:02:18.795Z,3.56
2019-04-10T02:02:52.007Z,3.56
2019-04-10T02:03:25.707Z,3.56
2019-04-10T02:03:58.849Z,3.56
2019-04-10T02:04:33.033Z,3.56
2019-04-10T02:05:06.297Z,3.56
2019-04-10T02:05:39.323Z,3.56
2019-04-10T02:06:13.330Z,3.50
2019-04-10T02:06:46.451Z,3.50
2019-04-10T02:07:20.205Z,3.50
2019-04-10T02:08:03.296Z,3.50
2019-04-10T02:08:29.851Z,3.50
2019-04-10T02:09:06.639Z,3.50
2019-04-10T02:09:39.654Z,3.50
2019-04-10T02:10:13.987Z,3.50
2019-04-10T02:10:48.117Z,3.50
2019-04-10T02:11:21.752Z,3.50
2019-04-10T02:11:54.997Z,3.50
2019-04-10T02:12:28.430Z,3.50
2019-04-10T02:13:01.559Z,3.44
2019-04-10T02:13:34.546Z,3.44
2019-04-10T02:14:07.809Z,3.44
2019-04-10T02:14:40.879Z,3.44
2019-04-10T02:15:15.724Z,3.44
2019-04-10T02:15:48.722Z,3.37
2019-04-10T02:16:22.903Z,3.37
2019-04-10T02:16:57.086Z,3.37
2019-04-10T02:17:30.790Z,3.37
2019-04-10T02:18:03.975Z,3.37
2019-04-10T02:18:37.302Z,3.37
2019-04-10T02:19:10.450Z,3.37
2019-04-10T02:19:43.365Z,3.37
2019-04-10T02:20:17.535Z,3.37
2019-04-10T02:20:51.502Z,3.37
2019-04-10T02:21:25.480Z,3.37
2019-04-10T02:22:00.305Z,3.31
2019-04-10T02:22:33.265Z,3.31
2019-04-10T02:23:06.296Z,3.31
2019-04-10T02:23:39.279Z,3.31
2019-04-10T02:24:12.273Z,3.31
2019-04-10T02:24:45.274Z,3.31
2019-04-10T02:25:18.391Z,3.31
2019-04-10T02:25:51.301Z,3.25
2019-04-10T02:26:25.331Z,3.25
2019-04-10T02:26:58.466Z,3.25
2019-04-10T02:27:32.169Z,3.25
2019-04-10T02:28:05.253Z,3.25
2019-04-10T02:28:39.445Z,3.25
2019-04-10T02:29:12.607Z,3.25
2019-04-10T02:29:46.062Z,3.25
2019-04-10T02:30:19.765Z,3.25
2019-04-10T02:30:54.200Z,3.25
2019-04-10T02:31:28.619Z,3.25
2019-04-10T02:32:04.005Z,3.25
2019-04-10T02:32:39.224Z,3.25
2019-04-10T02:33:13.795Z,3.25
2019-04-10T02:33:47.403Z,3.25
2019-04-10T02:34:21.264Z,3.25
2019-04-10T02:34:55.257Z,3.19
2019-04-10T02:35:29.736Z,3.19
2019-04-10T02:36:03.660Z,3.19
2019-04-10T02:36:38.567Z,3.19
2019-04-10T02:37:12.873Z,3.19
2019-04-10T02:37:49.495Z,3.19
2019-04-10T02:38:36.893Z,3.19
2019-04-10T02:39:08.798Z,3.12
2019-04-10T02:39:37.934Z,3.19
2019-04-10T02:40:09.803Z,3.12
2019-04-10T02:40:43.345Z,3.12
2019-04-10T02:41:17.374Z,3.19
2019-04-10T02:41:52.103Z,3.19
2019-04-10T02:42:26.748Z,3.19
2019-04-10T02:43:00.636Z,3.19
2019-04-10T02:43:35.932Z,3.19
2019-04-10T02:44:11.681Z,3.19
2019-04-10T02:44:45.917Z,3.19
2019-04-10T02:45:21.947Z,3.19
2019-04-10T02:45:55.681Z,3.19
2019-04-10T02:46:31.385Z,3.19
2019-04-10T02:47:05.043Z,3.19
2019-04-10T02:47:41.097Z,3.19
2019-04-10T02:48:15.032Z,3.19
2019-04-10T02:48:49.892Z,3.19
2019-04-10T02:49:24.703Z,3.19
2019-04-10T02:49:58.113Z,3.19
2019-04-10T02:50:31.421Z,3.19
2019-04-10T02:51:05.582Z,3.19
2019-04-10T02:51:39.054Z,3.12
2019-04-10T02:52:12.926Z,3.12
2019-04-10T02:52:48.417Z,3.12
2019-04-10T02:53:22.073Z,3.06
2019-04-10T02:53:57.981Z,3.06
2019-04-10T02:54:31.187Z,3.12
2019-04-10T02:55:07.141Z,3.06
2019-04-10T02:55:40.853Z,3.06
2019-04-10T02:56:15.724Z,3.06
2019-04-10T02:56:49.641Z,3.06
2019-04-10T02:57:22.818Z,3.06
2019-04-10T02:57:56.426Z,3.06
2019-04-10T02:58:30.128Z,3.06
2019-04-10T02:59:04.868Z,3.06
2019-04-10T02:59:39.653Z,3.06
2019-04-10T03:00:14.073Z,3.06
2019-04-10T03:00:48.817Z,3.06
2019-04-10T03:01:23.507Z,3.06
2019-04-10T03:01:57.972Z,3.06
2019-04-10T03:02:33.252Z,3.06
2019-04-10T03:03:07.615Z,3.06
2019-04-10T03:03:42.356Z,3.06
2019-04-10T03:04:16.563Z,3.06
2019-04-10T03:04:50.922Z,3.06
2019-04-10T03:05:27.111Z,3.06
2019-04-10T03:06:00.349Z,3.00
2019-04-10T03:06:33.625Z,3.00
2019-04-10T03:07:09.567Z,3.06
2019-04-10T03:07:44.307Z,3.06
2019-04-10T03:08:17.617Z,3.06
2019-04-10T03:09:07.541Z,3.06
2019-04-10T03:09:41.898Z,3.06
2019-04-10T03:10:13.034Z,3.06
2019-04-10T03:10:44.466Z,3.00
2019-04-10T03:11:12.423Z,3.00
2019-04-10T03:11:47.427Z,3.00
2019-04-10T03:12:21.898Z,3.00
2019-04-10T03:12:56.389Z,3.00
2019-04-10T03:13:31.100Z,3.00
2019-04-10T03:14:04.697Z,3.00
2019-04-10T03:14:39.272Z,3.00
2019-04-10T03:15:12.926Z,3.00
2019-04-10T03:15:47.510Z,2.94
2019-04-10T03:16:21.622Z,2.94
2019-04-10T03:16:56.219Z,3.00
2019-04-10T03:17:30.017Z,2.94
2019-04-10T03:18:04.286Z,3.00
2019-04-10T03:18:37.347Z,3.00
2019-04-10T03:19:11.544Z,2.94
2019-04-10T03:19:45.561Z,2.94
2019-04-10T03:20:18.587Z,2.94
2019-04-10T03:20:51.593Z,2.94
2019-04-10T03:21:24.517Z,2.94
2019-04-10T03:21:57.666Z,2.94
2019-04-10T03:22:30.734Z,2.87
2019-04-10T03:23:03.736Z,2.87
2019-04-10T03:23:41.780Z,2.87
2019-04-10T03:24:15.111Z,2.87
2019-04-10T03:24:48.518Z,2.87
2019-04-10T03:25:21.531Z,2.87
2019-04-10T03:25:54.453Z,2.94
2019-04-10T03:26:27.910Z,2.87
2019-04-10T03:27:01.739Z,2.87
2019-04-10T03:27:34.995Z,2.94
2019-04-10T03:28:09.026Z,2.94
2019-04-10T03:28:43.066Z,2.94
2019-04-10T03:29:16.213Z,2.87
2019-04-10T03:29:49.225Z,2.87
2019-04-10T03:30:23.464Z,2.87
2019-04-10T03:30:58.723Z,2.87
2019-04-10T03:31:33.739Z,2.87
2019-04-10T03:32:28.460Z,2.87
2019-04-10T03:33:26.169Z,2.87
2019-04-10T03:34:16.810Z,2.87
2019-04-10T03:34:53.335Z,2.87
2019-04-10T03:35:51.741Z,2.87
2019-04-10T03:36:27.728Z,2.87
2019-04-10T03:37:01.772Z,2.81
2019-04-10T03:37:36.167Z,2.81
2019-04-10T03:38:09.836Z,2.81
2019-04-10T03:38:55.498Z,2.81
2019-04-10T03:39:17.941Z,2.81
2019-04-10T03:39:51.047Z,2.81
2019-04-10T03:40:23.994Z,2.81
2019-04-10T03:40:56.901Z,2.81
2019-04-10T03:41:30.319Z,2.81
2019-04-10T03:42:04.366Z,2.75
2019-04-10T03:42:37.483Z,2.75
2019-04-10T03:43:10.449Z,2.75
2019-04-10T03:43:43.787Z,2.75
2019-04-10T03:44:16.866Z,2.75
2019-04-10T03:44:49.882Z,2.75
2019-04-10T03:45:22.859Z,2.75
2019-04-10T03:45:57.053Z,2.69
2019-04-10T03:46:30.183Z,2.69
2019-04-10T03:47:03.386Z,2.69
2019-04-10T03:47:37.427Z,2.69
2019-04-10T03:48:11.747Z,2.75
2019-04-10T03:48:45.236Z,2.69
2019-04-10T03:49:18.233Z,2.75
2019-04-10T03:49:51.917Z,2.75
2019-04-10T03:50:25.837Z,2.69
2019-04-10T03:50:58.918Z,2.69
2019-04-10T03:51:33.541Z,2.69
2019-04-10T03:52:07.225Z,2.75
2019-04-10T03:52:41.173Z,2.75
2019-04-10T03:53:14.124Z,2.75
2019-04-10T03:53:47.057Z,2.75
2019-04-10T03:54:20.756Z,2.75
2019-04-10T03:54:55.132Z,2.69
2019-04-10T03:55:29.170Z,2.69
2019-04-10T03:56:02.304Z,2.69
2019-04-10T03:56:36.003Z,2.69
2019-04-10T03:57:10.038Z,2.69
2019-04-10T03:57:42.979Z,2.69
2019-04-10T03:58:15.914Z,2.62
2019-04-10T03:58:49.532Z,2.62
2019-04-10T03:59:22.804Z,2.62
2019-04-10T03:59:56.020Z,2.62
2019-04-10T04:00:30.284Z,2.62
2019-04-10T04:01:03.397Z,2.62
2019-04-10T04:01:36.364Z,2.62
2019-04-10T04:02:09.190Z,2.62
2019-04-10T04:02:42.179Z,2.62
2019-04-10T04:03:16.122Z,2.62
2019-04-10T04:03:49.318Z,2.56
2019-04-10T04:04:22.355Z,2.56
2019-04-10T04:04:55.952Z,2.50
2019-04-10T04:05:29.111Z,2.50
2019-04-10T04:06:03.514Z,2.50
2019-04-10T04:06:36.684Z,2.50
2019-04-10T04:07:11.357Z,2.50
2019-04-10T04:07:44.335Z,2.50
2019-04-10T04:08:17.264Z,2.50
2019-04-10T04:09:03.315Z,2.50
2019-04-10T04:09:27.252Z,2.50
2019-04-10T04:10:00.415Z,2.44
2019-04-10T04:10:35.079Z,2.44
2019-04-10T04:11:09.178Z,2.44
2019-04-10T04:11:42.411Z,2.44
2019-04-10T04:12:15.307Z,2.44
2019-04-10T04:12:48.235Z,2.44
2019-04-10T04:13:21.676Z,2.44
2019-04-10T04:13:55.564Z,2.44
2019-04-10T04:14:28.515Z,2.44
2019-04-10T04:15:02.242Z,2.37
2019-04-10T04:15:36.387Z,2.37
2019-04-10T04:16:09.289Z,2.37
2019-04-10T04:16:42.164Z,2.37
2019-04-10T04:17:16.225Z,2.37
2019-04-10T04:17:49.063Z,2.37
2019-04-10T04:18:22.003Z,2.37
2019-04-10T04:18:54.823Z,2.37
2019-04-10T04:19:28.248Z,2.37
2019-04-10T04:20:02.431Z,2.37
2019-04-10T04:20:35.784Z,2.37
2019-04-10T04:21:09.736Z,2.37
2019-04-10T04:21:43.824Z,2.37
2019-04-10T04:22:16.817Z,2.31
2019-04-10T04:22:49.722Z,2.31
2019-04-10T04:23:23.361Z,2.31
2019-04-10T04:23:57.253Z,2.37
2019-04-10T04:24:31.483Z,2.37
2019-04-10T04:25:04.716Z,2.37
2019-04-10T04:25:38.641Z,2.37
2019-04-10T04:26:12.970Z,2.37
2019-04-10T04:26:48.568Z,2.37
2019-04-10T04:27:21.719Z,2.37
2019-04-10T04:27:54.644Z,2.37
2019-04-10T04:28:28.373Z,2.31
2019-04-10T04:29:02.020Z,2.37
2019-04-10T04:29:35.142Z,2.37
2019-04-10T04:30:08.938Z,2.31
2019-04-10T04:30:41.979Z,2.31
2019-04-10T04:31:16.018Z,2.31
2019-04-10T04:31:49.041Z,2.31
2019-04-10T04:32:23.815Z,2.31
2019-04-10T04:32:58.037Z,2.31
2019-04-10T04:33:31.959Z,2.31
2019-04-10T04:34:06.077Z,2.31
2019-04-10T04:34:39.076Z,2.25
2019-04-10T04:35:13.169Z,2.25
2019-04-10T04:35:47.212Z,2.25
2019-04-10T04:36:20.422Z,2.25
2019-04-10T04:36:53.654Z,2.25
2019-04-10T04:37:26.683Z,2.25
2019-04-10T04:38:00.451Z,2.25
2019-04-10T04:38:34.610Z,2.25
2019-04-10T04:39:17.475Z,2.25
2019-04-10T04:39:45.259Z,2.25
2019-04-10T04:40:19.701Z,2.25
2019-04-10T04:40:53.161Z,2.25
2019-04-10T04:41:26.039Z,2.25
2019-04-10T04:41:59.079Z,2.25
2019-04-10T04:42:33.005Z,2.25
2019-04-10T04:43:06.229Z,2.25
2019-04-10T04:43:40.026Z,2.25
2019-04-10T04:44:14.589Z,2.25
2019-04-10T04:44:47.821Z,2.25
2019-04-10T04:45:21.549Z,2.25
2019-04-10T04:45:55.439Z,2.25
2019-04-10T04:46:28.389Z,2.25
2019-04-10T04:47:01.406Z,2.25
2019-04-10T04:47:35.639Z,2.19
2019-04-10T04:48:09.742Z,2.25
2019-04-10T04:48:43.345Z,2.19
2019-04-10T04:49:16.257Z,2.19
2019-04-10T04:49:50.039Z,2.19
2019-04-10T04:50:24.616Z,2.19
2019-04-10T04:50:59.720Z,2.19
2019-04-10T04:51:33.098Z,2.19
2019-04-10T04:52:07.015Z,2.19
2019-04-10T04:52:41.176Z,2.19
2019-04-10T04:53:14.319Z,2.19
2019-04-10T04:53:48.317Z,2.19
2019-04-10T04:54:23.292Z,2.19
2019-04-10T04:54:57.166Z,2.12
2019-04-10T04:55:31.031Z,2.12
2019-04-10T04:56:04.142Z,2.12
2019-04-10T04:56:37.119Z,2.12
2019-04-10T04:57:10.708Z,2.12
2019-04-10T04:57:45.034Z,2.12
2019-04-10T04:58:18.156Z,2.12
2019-04-10T04:58:52.405Z,2.12
2019-04-10T04:59:26.192Z,2.12
2019-04-10T04:59:59.353Z,2.06
2019-04-10T05:00:32.154Z,2.06
2019-04-10T05:01:06.216Z,2.06
2019-04-10T05:01:40.425Z,2.06
2019-04-10T05:02:14.355Z,2.06
2019-04-10T05:02:47.889Z,2.00
2019-04-10T05:03:21.346Z,2.00
2019-04-10T05:03:54.818Z,2.00
2019-04-10T05:04:28.127Z,2.00
2019-04-10T05:05:04.470Z,2.06
2019-04-10T05:05:37.684Z,2.06
2019-04-10T05:06:10.692Z,2.06
2019-04-10T05:06:43.778Z,2.06
2019-04-10T05:07:16.941Z,2.06
2019-04-10T05:07:59.363Z,2.00
2019-04-10T05:08:25.941Z,2.00
2019-04-10T05:08:59.298Z,2.00
2019-04-10T05:09:36.908Z,2.00
2019-04-10T05:10:08.999Z,2.00
2019-04-10T05:10:42.307Z,2.00
2019-04-10T05:11:15.237Z,2.00
2019-04-10T05:11:48.952Z,2.00
2019-04-10T05:12:23.439Z,2.06
2019-04-10T05:12:57.790Z,2.06
2019-04-10T05:13:31.335Z,2.06
2019-04-10T05:14:04.888Z,2.06
2019-04-10T05:14:38.353Z,2.06
2019-04-10T05:15:11.454Z,2.12
2019-04-10T05:15:44.932Z,2.12
2019-04-10T05:16:18.661Z,2.12
2019-04-10T05:16:52.071Z,2.12
2019-04-10T05:17:25.317Z,2.19
2019-04-10T05:17:58.345Z,2.19
2019-04-10T05:18:31.741Z,2.19
2019-04-10T05:19:04.926Z,2.19
2019-04-10T05:19:38.357Z,2.19
2019-04-10T05:20:11.641Z,2.25
2019-04-10T05:20:48.514Z,2.25
2019-04-10T05:21:19.507Z,2.25
2019-04-10T05:21:52.389Z,2.25
2019-04-10T05:22:26.304Z,2.25
2019-04-10T05:22:59.935Z,2.25
2019-04-10T05:23:33.152Z,2.25
2019-04-10T05:24:06.021Z,2.25
2019-04-10T05:24:39.102Z,2.31
2019-04-10T05:25:13.178Z,2.31
2019-04-10T05:25:46.550Z,2.31
2019-04-10T05:26:20.670Z,2.37
2019-04-10T05:26:53.812Z,2.37
2019-04-10T05:27:26.804Z,2.37
2019-04-10T05:28:00.081Z,2.37
2019-04-10T05:28:33.117Z,2.37
2019-04-10T05:29:06.089Z,2.44
2019-04-10T05:29:39.099Z,2.44
2019-04-10T05:30:12.895Z,2.44
2019-04-10T05:30:45.851Z,2.44
2019-04-10T05:31:19.308Z,2.44
2019-04-10T05:31:53.102Z,2.50
2019-04-10T05:32:26.203Z,2.44
2019-04-10T05:32:59.792Z,2.50
2019-04-10T05:33:33.204Z,2.50
2019-04-10T05:34:06.239Z,2.50
2019-04-10T05:34:40.513Z,2.56
2019-04-10T05:35:13.626Z,2.56
2019-04-10T05:35:47.055Z,2.56
2019-04-10T05:36:20.055Z,2.56
2019-04-10T05:36:52.979Z,2.56
2019-04-10T05:37:25.866Z,2.56
2019-04-10T05:37:58.999Z,2.56
2019-04-10T05:38:32.141Z,2.62
2019-04-10T05:39:06.438Z,2.62
2019-04-10T05:39:45.333Z,2.62
2019-04-10T05:40:15.275Z,2.62
2019-04-10T05:40:48.559Z,2.62
2019-04-10T05:41:21.704Z,2.62
2019-04-10T05:41:56.821Z,2.62
2019-04-10T05:42:30.993Z,2.69
2019-04-10T05:43:04.110Z,2.69
2019-04-10T05:43:36.985Z,2.69
2019-04-10T05:44:09.990Z,2.69
2019-04-10T05:44:42.979Z,2.69
2019-04-10T05:45:17.005Z,2.69
2019-04-10T05:45:50.685Z,2.75
2019-04-10T05:46:24.866Z,2.75
2019-04-10T05:46:57.993Z,2.75
2019-04-10T05:47:30.852Z,2.75
2019-04-10T05:48:04.013Z,2.81
2019-04-10T05:48:37.017Z,2.81
2019-04-10T05:49:10.776Z,2.81
2019-04-10T05:49:44.926Z,2.81
2019-04-10T05:50:19.260Z,2.81
2019-04-10T05:50:58.236Z,2.81
2019-04-10T05:51:27.267Z,2.87
2019-04-10T05:52:00.346Z,2.87
2019-04-10T05:52:34.025Z,2.87
2019-04-10T05:53:07.785Z,2.87
2019-04-10T05:53:40.887Z,2.94
2019-04-10T05:54:14.920Z,2.94
2019-04-10T05:54:47.999Z,2.94
2019-04-10T05:55:21.175Z,2.94
2019-04-10T05:55:54.191Z,2.94
2019-04-10T05:56:27.959Z,2.94
2019-04-10T05:57:01.238Z,3.00
2019-04-10T05:57:34.924Z,3.00
2019-04-10T05:58:09.156Z,3.00
2019-04-10T05:58:42.831Z,3.00
2019-04-10T05:59:16.459Z,3.00
2019-04-10T05:59:49.919Z,3.06
2019-04-10T06:00:23.273Z,3.06
2019-04-10T06:00:57.547Z,3.06
2019-04-10T06:01:36.724Z,3.06
2019-04-10T06:02:06.818Z,3.06
2019-04-10T06:02:40.449Z,3.06
2019-04-10T06:03:14.548Z,3.12
2019-04-10T06:03:47.461Z,3.12
2019-04-10T06:04:21.103Z,3.12
2019-04-10T06:04:54.115Z,3.12
2019-04-10T06:05:27.009Z,3.12
2019-04-10T06:06:01.141Z,3.12
2019-04-10T06:06:34.627Z,3.19
2019-04-10T06:07:08.580Z,3.19
2019-04-10T06:07:41.455Z,3.19
2019-04-10T06:08:14.517Z,3.19
2019-04-10T06:08:47.475Z,3.19
2019-04-10T06:09:20.639Z,3.19
2019-04-10T06:09:59.586Z,3.25
2019-04-10T06:10:30.134Z,3.25
2019-04-10T06:11:04.524Z,3.25
2019-04-10T06:11:37.743Z,3.25
2019-04-10T06:12:11.870Z,3.25
2019-04-10T06:12:45.014Z,3.31
2019-04-10T06:13:19.242Z,3.31
2019-04-10T06:13:52.731Z,3.31
2019-04-10T06:14:26.240Z,3.37
2019-04-10T06:14:59.305Z,3.37
2019-04-10T06:15:32.427Z,3.37
2019-04-10T06:16:05.684Z,3.37
2019-04-10T06:16:38.874Z,3.37
2019-04-10T06:17:12.051Z,3.44
2019-04-10T06:17:45.195Z,3.44
2019-04-10T06:18:18.764Z,3.44
2019-04-10T06:18:51.993Z,3.44
2019-04-10T06:19:25.562Z,3.44
2019-04-10T06:20:00.807Z,3.50
2019-04-10T06:20:33.879Z,3.50
2019-04-10T06:21:07.136Z,3.50
2019-04-10T06:21:40.147Z,3.50
2019-04-10T06:22:13.121Z,3.56
2019-04-10T06:22:47.229Z,3.56
2019-04-10T06:23:20.452Z,3.56
2019-04-10T06:23:53.918Z,3.56
2019-04-10T06:24:27.951Z,3.56
2019-04-10T06:25:03.670Z,3.62
2019-04-10T06:25:38.871Z,3.62
2019-04-10T06:26:12.643Z,3.62
2019-04-10T06:26:47.920Z,3.62
2019-04-10T06:27:21.019Z,3.62
2019-04-10T06:27:53.963Z,3.62
2019-04-10T06:28:27.854Z,3.62
2019-04-10T06:29:02.397Z,3.69
2019-04-10T06:29:37.180Z,3.69
2019-04-10T06:30:10.634Z,3.69
2019-04-10T06:30:44.071Z,3.69
2019-04-10T06:31:17.165Z,3.75
2019-04-10T06:31:50.200Z,3.75
2019-04-10T06:32:23.276Z,3.75
2019-04-10T06:32:56.218Z,3.81
2019-04-10T06:33:29.214Z,3.81
2019-04-10T06:34:02.540Z,3.81
2019-04-10T06:34:36.406Z,3.81
2019-04-10T06:35:09.869Z,3.81
2019-04-10T06:35:42.775Z,3.81
2019-04-10T06:36:15.879Z,3.87
2019-04-10T06:36:49.453Z,3.87
2019-04-10T06:37:22.607Z,3.87
2019-04-10T06:37:56.738Z,3.87
2019-04-10T06:38:30.776Z,3.87
2019-04-10T06:39:06.697Z,3.87
2019-04-10T06:39:41.966Z,3.87
2019-04-10T06:40:20.644Z,3.94
2019-04-10T06:40:50.335Z,3.94
2019-04-10T06:41:24.289Z,4.00
2019-04-10T06:41:58.186Z,4.00
2019-04-10T06:42:38.832Z,4.00
2019-04-10T06:43:06.592Z,4.06
2019-04-10T06:43:39.733Z,4.06
2019-04-10T06:44:12.631Z,4.12
2019-04-10T06:44:46.063Z,4.12
2019-04-10T06:45:19.859Z,4.12
2019-04-10T06:45:52.967Z,4.12
2019-04-10T06:46:26.080Z,4.19
2019-04-10T06:46:59.996Z,4.19
2019-04-10T06:47:34.063Z,4.19
2019-04-10T06:48:07.209Z,4.19
2019-04-10T06:48:40.354Z,4.19
2019-04-10T06:49:14.372Z,4.25
2019-04-10T06:49:47.922Z,4.25
2019-04-10T06:50:21.133Z,4.25
2019-04-10T06:50:54.102Z,4.25
2019-04-10T06:51:27.291Z,4.25
2019-04-10T06:52:00.252Z,4.25
2019-04-10T06:52:33.207Z,4.31
2019-04-10T06:53:06.366Z,4.31
2019-04-10T06:53:39.608Z,4.37
2019-04-10T06:54:12.919Z,4.37
2019-04-10T06:54:47.022Z,4.44
2019-04-10T06:55:20.049Z,4.44
2019-04-10T06:55:54.356Z,4.44
2019-04-10T06:56:27.525Z,4.44
2019-04-10T06:57:00.784Z,4.44
2019-04-10T06:57:45.133Z,4.50
2019-04-10T06:58:09.648Z,4.50
2019-04-10T06:58:42.807Z,4.56
2019-04-10T06:59:16.265Z,4.56
2019-04-10T06:59:50.324Z,4.56
2019-04-10T07:00:23.497Z,4.62
2019-04-10T07:00:56.531Z,4.62
2019-04-10T07:01:39.349Z,4.62
2019-04-10T07:02:16.647Z,4.69
2019-04-10T07:02:40.125Z,4.69
2019-04-10T07:03:13.142Z,4.69
2019-04-10T07:03:58.678Z,4.69
2019-04-10T07:04:24.051Z,4.69
2019-04-10T07:05:05.027Z,4.75
2019-04-10T07:05:39.723Z,4.75
2019-04-10T07:06:14.388Z,4.75
2019-04-10T07:06:54.909Z,4.75
2019-04-10T07:07:20.339Z,4.75
2019-04-10T07:07:56.664Z,4.81
2019-04-10T07:08:27.481Z,4.81
2019-04-10T07:09:00.710Z,4.87
2019-04-10T07:09:33.889Z,4.94
2019-04-10T07:10:21.479Z,5.00
2019-04-10T07:10:52.059Z,5.00
2019-04-10T07:11:20.491Z,5.06
2019-04-10T07:11:59.626Z,5.06
2019-04-10T07:12:33.620Z,5.12
2019-04-10T07:13:08.890Z,5.12
2019-04-10T07:13:41.610Z,5.19
2019-04-10T07:14:16.206Z,5.19
2019-04-10T07:14:51.498Z,5.19
2019-04-10T07:15:25.661Z,5.25
2019-04-10T07:15:59.937Z,5.25
2019-04-10T07:16:35.381Z,5.25
2019-04-10T07:17:10.277Z,5.25
2019-04-10T07:17:43.330Z,5.25
2019-04-10T07:18:18.889Z,5.25
2019-04-10T07:18:51.988Z,5.25
2019-04-10T07:19:26.180Z,5.31
2019-04-10T07:19:59.731Z,5.31
2019-04-10T07:20:33.695Z,5.37
2019-04-10T07:21:06.875Z,5.37
2019-04-10T07:21:40.578Z,5.37
2019-04-10T07:22:14.691Z,5.37
2019-04-10T07:22:49.760Z,5.37
2019-04-10T07:23:27.488Z,5.37
2019-04-10T07:24:03.409Z,5.37
2019-04-10T07:24:36.994Z,5.37
2019-04-10T07:25:10.321Z,5.37
2019-04-10T07:25:45.464Z,5.37
2019-04-10T07:26:26.958Z,5.44
2019-04-10T07:26:53.338Z,5.44
2019-04-10T07:27:26.329Z,5.44
2019-04-10T07:28:01.216Z,5.44
2019-04-10T07:28:36.640Z,5.50
2019-04-10T07:29:09.165Z,5.50
2019-04-10T07:29:42.507Z,5.56
2019-04-10T07:30:15.993Z,5.50
2019-04-10T07:30:48.904Z,5.56
2019-04-10T07:31:23.502Z,5.56
2019-04-10T07:31:56.998Z,5.56